createdAt,value
2022-09-14T00:01:57.474Z,8.73
2022-09-14T00:06:09.972Z,7.00
2022-09-14T00:10:17.770Z,7.13
2022-09-14T00:14:25.793Z,7.60
2022-09-14T00:18:34.740Z,9.43
2022-09-14T00:22:42.617Z,9.43
2022-09-14T00:26:49.540Z,8.00
2022-09-14T00:30:53.460Z,8.77
2022-09-14T00:35:00.095Z,8.63
2022-09-14T00:39:08.129Z,8.87
2022-09-14T00:43:17.261Z,7.90
2022-09-14T00:47:22.784Z,9.40
2022-09-14T00:51:30.237Z,8.70
2022-09-14T00:55:39.298Z,10.70
2022-09-14T00:59:47.127Z,8.90
2022-09-14T01:03:52.215Z,7.80
2022-09-14T01:08:12.768Z,8.90
2022-09-14T01:12:32.697Z,9.93
2022-09-14T01:16:47.308Z,8.73
2022-09-14T01:20:58.270Z,8.30
2022-09-14T01:25:15.583Z,9.17
2022-09-14T01:29:25.923Z,8.43
2022-09-14T01:33:35.576Z,8.60
2022-09-14T01:37:47.052Z,8.07
2022-09-14T01:41:54.651Z,8.30
2022-09-14T01:46:10.791Z,8.90
2022-09-14T01:50:21.997Z,8.53
2022-09-14T01:54:31.233Z,7.43
2022-09-14T01:58:39.402Z,8.50
2022-09-14T02:02:50.437Z,8.80
2022-09-14T02:06:54.587Z,7.63
2022-09-14T02:10:59.769Z,7.80
2022-09-14T02:15:05.248Z,7.93
2022-09-14T02:19:12.480Z,9.53
2022-09-14T02:23:19.911Z,13.67
2022-09-14T02:27:25.089Z,11.63
2022-09-14T02:31:38.847Z,10.90
2022-09-14T02:35:50.486Z,9.13
2022-09-14T02:40:03.957Z,9.07
2022-09-14T02:44:17.858Z,9.40
2022-09-14T02:48:32.039Z,11.13
2022-09-14T02:52:49.062Z,9.20
2022-09-14T02:56:55.662Z,9.20
2022-09-14T03:01:00.456Z,12.30
2022-09-14T03:05:04.926Z,11.40
2022-09-14T03:09:11.485Z,10.43
2022-09-14T03:13:14.790Z,9.67
2022-09-14T03:17:18.113Z,10.07
2022-09-14T03:21:21.396Z,14.87
2022-09-14T03:25:26.415Z,8.90
2022-09-14T03:29:30.059Z,9.10
2022-09-14T03:33:33.307Z,8.37
2022-09-14T03:37:38.679Z,8.53
2022-09-14T03:41:43.210Z,8.40
2022-09-14T03:45:46.876Z,9.50
2022-09-14T03:49:50.901Z,8.30
2022-09-14T03:53:54.631Z,8.57
2022-09-14T03:57:59.330Z,8.63
2022-09-14T04:02:02.886Z,8.33
2022-09-14T04:06:07.266Z,8.47
2022-09-14T04:10:11.619Z,8.63
2022-09-14T04:14:16.466Z,8.90
2022-09-14T04:18:19.676Z,8.50
2022-09-14T04:22:22.889Z,7.90
2022-09-14T04:26:28.227Z,8.50
2022-09-14T04:30:34.467Z,8.40
2022-09-14T04:34:37.767Z,9.00
2022-09-14T04:38:42.321Z,10.37
2022-09-14T04:42:45.466Z,8.30
2022-09-14T04:46:50.318Z,13.77
2022-09-14T04:50:53.399Z,8.10
2022-09-14T04:54:58.305Z,11.07
2022-09-14T04:59:04.362Z,13.60
2022-09-14T05:03:09.158Z,10.83
2022-09-14T05:07:12.344Z,8.80
2022-09-14T05:11:17.469Z,10.73
2022-09-14T05:15:20.758Z,8.90
2022-09-14T05:19:27.249Z,8.90
2022-09-14T05:23:30.957Z,19.63
2022-09-14T05:27:34.430Z,12.40
2022-09-14T05:31:40.555Z,11.03
2022-09-14T05:35:49.255Z,9.67
2022-09-14T05:39:53.684Z,9.17
2022-09-14T05:43:56.968Z,8.20
2022-09-14T05:48:04.791Z,9.77
2022-09-14T05:52:09.278Z,8.83
2022-09-14T05:56:14.332Z,8.43
2022-09-14T06:00:18.106Z,7.70
2022-09-14T06:04:24.743Z,7.60
2022-09-14T06:08:34.110Z,8.47
2022-09-14T06:12:40.382Z,10.77
2022-09-14T06:16:47.073Z,7.07
2022-09-14T06:20:53.343Z,7.60
2022-09-14T06:24:57.980Z,8.13
2022-09-14T06:29:28.966Z,7.20
2022-09-14T06:33:35.028Z,6.67
2022-09-14T06:37:42.431Z,7.03
2022-09-14T06:41:47.372Z,6.80
2022-09-14T06:45:58.264Z,7.40
2022-09-14T06:50:01.950Z,7.80
2022-09-14T06:54:06.696Z,6.17
2022-09-14T06:58:12.488Z,6.60
2022-09-14T07:02:16.054Z,8.00
2022-09-14T07:11:42.405Z,7.50
2022-09-14T07:16:13.502Z,6.93
2022-09-14T07:20:17.049Z,8.40
2022-09-14T07:24:20.340Z,5.37
2022-09-14T07:28:24.549Z,5.40
2022-09-14T07:32:29.059Z,6.93
2022-09-14T07:36:35.091Z,7.00
2022-09-14T07:40:41.055Z,7.00
2022-09-14T07:44:45.511Z,5.90
2022-09-14T07:48:57.092Z,4.83
2022-09-14T07:53:02.866Z,5.00
2022-09-14T07:57:07.530Z,5.00
2022-09-14T08:01:14.342Z,5.03
2022-09-14T08:05:21.429Z,6.00
2022-09-14T08:09:25.873Z,5.13
2022-09-14T08:13:29.092Z,6.93
2022-09-14T08:17:32.201Z,4.37
2022-09-14T08:21:37.201Z,5.70
2022-09-14T08:25:40.346Z,6.40
2022-09-14T08:29:43.563Z,5.50
2022-09-14T08:33:48.538Z,7.03
2022-09-14T08:37:53.722Z,3.97
2022-09-14T08:42:00.211Z,5.97
2022-09-14T08:46:08.251Z,4.90
2022-09-14T08:50:17.776Z,3.93
2022-09-14T08:54:22.471Z,7.43
2022-09-14T08:58:42.660Z,4.40
2022-09-14T09:03:22.472Z,3.53
2022-09-14T09:07:33.672Z,4.40
2022-09-14T09:11:42.101Z,3.83
2022-09-14T09:15:49.382Z,3.73
2022-09-14T09:20:05.448Z,3.30
2022-09-14T09:24:17.087Z,5.13
2022-09-14T09:28:23.107Z,3.83
2022-09-14T09:32:27.553Z,3.80
2022-09-14T09:36:35.859Z,7.00
2022-09-14T09:40:45.037Z,4.60
2022-09-14T09:45:07.591Z,6.23
2022-09-14T09:49:20.142Z,5.40
2022-09-14T09:53:25.123Z,4.40
2022-09-14T09:57:33.982Z,5.80
2022-09-14T10:01:38.614Z,6.73
2022-09-14T10:05:41.982Z,5.70
2022-09-14T10:09:45.222Z,6.43
2022-09-14T10:13:48.761Z,7.87
2022-09-14T10:18:07.716Z,11.90
2022-09-14T10:22:27.087Z,17.10
2022-09-14T10:26:35.074Z,6.53
2022-09-14T10:30:43.797Z,5.87
2022-09-14T10:34:48.440Z,8.73
2022-09-14T10:38:55.208Z,6.33
2022-09-14T10:43:10.977Z,8.30
2022-09-14T10:47:26.918Z,5.33
2022-09-14T10:51:41.942Z,5.10
2022-09-14T10:55:53.348Z,4.10
2022-09-14T11:00:00.848Z,4.17
2022-09-14T11:04:24.972Z,4.20
2022-09-14T11:08:34.077Z,4.23
2022-09-14T11:12:47.535Z,4.87
2022-09-14T11:17:15.455Z,3.30
2022-09-14T11:21:26.540Z,3.30
2022-09-14T11:25:38.717Z,3.47
2022-09-14T11:29:47.917Z,7.30
2022-09-14T11:33:57.092Z,3.20
2022-09-14T11:38:03.232Z,3.67
2022-09-14T11:42:11.896Z,7.03
2022-09-14T11:46:19.106Z,3.50
2022-09-14T11:50:26.568Z,2.90
2022-09-14T11:54:30.021Z,9.03
2022-09-14T11:58:34.770Z,3.97
2022-09-14T12:03:00.864Z,4.17
2022-09-14T12:07:04.078Z,3.33
2022-09-14T12:11:32.362Z,3.40
2022-09-14T12:15:38.178Z,2.83
2022-09-14T12:19:41.708Z,3.97
2022-09-14T12:23:51.845Z,3.40
2022-09-14T12:27:55.118Z,3.33
2022-09-14T12:32:25.541Z,3.00
2022-09-14T12:36:59.201Z,3.50
2022-09-14T12:41:24.582Z,4.30
2022-09-14T12:45:51.097Z,4.00
2022-09-14T12:49:57.846Z,4.30
2022-09-14T12:54:08.244Z,2.80
2022-09-14T12:58:23.036Z,3.33
2022-09-14T13:02:52.529Z,3.43
2022-09-14T13:06:59.856Z,3.50
2022-09-14T13:11:03.002Z,5.43
2022-09-14T13:15:08.774Z,4.17
2022-09-14T13:19:23.232Z,3.43
2022-09-14T13:23:30.269Z,3.13
2022-09-14T13:27:35.550Z,3.50
2022-09-14T13:31:40.694Z,4.00
2022-09-14T13:35:48.768Z,4.63
2022-09-14T13:39:56.002Z,2.70
2022-09-14T13:43:59.831Z,2.40
2022-09-14T13:48:03.550Z,2.80
2022-09-14T13:52:50.217Z,4.00
2022-09-14T13:57:16.958Z,3.80
2022-09-14T14:01:29.417Z,2.93
2022-09-14T14:05:34.318Z,2.60
2022-09-14T14:09:43.797Z,2.70
2022-09-14T14:13:48.454Z,2.80
2022-09-14T14:17:52.236Z,5.87
2022-09-14T14:22:13.456Z,3.47
2022-09-14T14:26:21.086Z,5.23
2022-09-14T14:30:27.021Z,2.80
2022-09-14T14:34:31.058Z,6.40
2022-09-14T14:38:34.339Z,3.13
2022-09-14T14:42:37.976Z,3.27
2022-09-14T14:46:44.294Z,3.87
2022-09-14T14:50:47.476Z,4.00
2022-09-14T14:54:50.861Z,3.40
2022-09-14T14:58:53.997Z,3.97
2022-09-14T15:02:58.855Z,5.83
2022-09-14T15:07:02.096Z,4.50
2022-09-14T15:11:05.318Z,5.50
2022-09-14T15:15:14.256Z,5.10
2022-09-14T15:19:19.409Z,7.27
2022-09-14T15:23:22.603Z,4.30
2022-09-14T15:27:25.882Z,4.30
2022-09-14T15:31:29.541Z,3.57
2022-09-14T15:35:35.137Z,6.27
2022-09-14T15:39:38.416Z,4.50
2022-09-14T15:43:41.571Z,3.83
2022-09-14T15:47:47.034Z,6.10
2022-09-14T15:51:53.505Z,4.93
2022-09-14T15:55:58.792Z,4.80
2022-09-14T16:00:02.093Z,5.33
2022-09-14T16:04:11.552Z,5.80
2022-09-14T16:08:16.419Z,4.70
2022-09-14T16:12:19.741Z,6.20
2022-09-14T16:16:23.108Z,5.23
2022-09-14T16:20:26.490Z,7.07
2022-09-14T16:24:32.797Z,5.00
2022-09-14T16:28:35.963Z,4.73
2022-09-14T16:32:39.165Z,5.63
2022-09-14T16:36:43.300Z,5.57
2022-09-14T16:40:48.041Z,10.13
2022-09-14T16:44:51.198Z,6.23
2022-09-14T16:48:54.915Z,5.93
2022-09-14T16:52:58.304Z,6.17
2022-09-14T16:57:04.719Z,8.33
2022-09-14T17:01:10.586Z,10.27
2022-09-14T17:05:14.137Z,7.63
2022-09-14T17:09:20.505Z,10.53
2022-09-14T17:13:26.391Z,7.17
2022-09-14T17:17:30.743Z,6.17
2022-09-14T17:21:38.588Z,7.50
2022-09-14T17:25:58.799Z,6.03
2022-09-14T17:30:08.272Z,7.93
2022-09-14T17:34:13.472Z,8.57
2022-09-14T17:38:17.125Z,13.83
2022-09-14T17:42:20.779Z,12.47
2022-09-14T17:46:26.486Z,9.93
2022-09-14T17:50:30.122Z,9.67
2022-09-14T17:54:33.814Z,8.10
2022-09-14T17:58:38.188Z,9.03
2022-09-14T18:02:43.347Z,8.97
2022-09-14T18:06:48.664Z,7.13
2022-09-14T18:10:52.178Z,7.10
2022-09-14T18:14:55.736Z,7.90
2022-09-14T18:19:01.195Z,8.67
2022-09-14T18:23:05.260Z,6.73
2022-09-14T18:27:09.034Z,7.70
2022-09-14T18:31:14.514Z,7.50
2022-09-14T18:35:19.546Z,8.00
2022-09-14T18:39:23.273Z,7.33
2022-09-14T18:43:27.041Z,7.07
2022-09-14T18:47:30.682Z,7.00
2022-09-14T18:51:35.338Z,7.07
2022-09-14T18:55:38.882Z,7.43
2022-09-14T18:59:42.894Z,7.40
2022-09-14T19:03:46.442Z,7.80
2022-09-14T19:07:51.802Z,7.80
2022-09-14T19:11:55.473Z,8.97
2022-09-14T19:15:58.897Z,6.90
2022-09-14T19:20:03.779Z,8.10
2022-09-14T19:24:14.701Z,6.70
2022-09-14T19:28:18.977Z,7.80
2022-09-14T19:32:22.636Z,11.70
2022-09-14T19:36:27.774Z,6.40
2022-09-14T19:40:32.839Z,6.87
2022-09-14T19:44:36.572Z,7.77
2022-09-14T19:48:40.923Z,7.50
2022-09-14T19:52:45.569Z,6.83
2022-09-14T19:56:50.671Z,5.70
2022-09-14T20:00:55.590Z,10.00
2022-09-14T20:04:59.043Z,14.80
2022-09-14T20:09:11.841Z,7.03
2022-09-14T20:19:12.423Z,8.60
2022-09-14T20:23:16.417Z,7.57
2022-09-14T20:27:19.781Z,7.90
2022-09-14T20:31:24.695Z,7.77
2022-09-14T20:35:28.078Z,8.43
2022-09-14T20:39:31.685Z,8.73
2022-09-14T20:43:36.772Z,10.30
2022-09-14T20:47:44.087Z,8.57
2022-09-14T20:51:47.455Z,9.10
2022-09-14T20:55:54.483Z,9.93
2022-09-14T20:59:58.220Z,10.10
2022-09-14T21:04:07.174Z,8.67
2022-09-14T21:08:10.378Z,10.50
2022-09-14T21:12:15.208Z,7.40
2022-09-14T21:16:20.667Z,9.67
2022-09-14T21:20:26.479Z,8.63
2022-09-14T21:24:31.155Z,8.50
2022-09-14T21:28:35.384Z,9.63
2022-09-14T21:32:38.553Z,7.70
2022-09-14T21:36:45.329Z,9.33
2022-09-14T21:40:48.606Z,7.67
2022-09-14T21:44:51.933Z,8.43
2022-09-14T21:48:56.986Z,10.53
2022-09-14T21:53:01.573Z,8.60
2022-09-14T21:57:05.199Z,8.23
2022-09-14T22:01:12.162Z,8.90
2022-09-14T22:05:15.525Z,9.80
2022-09-14T22:09:21.909Z,6.87
2022-09-14T22:13:25.245Z,8.30
2022-09-14T22:17:29.121Z,7.83
2022-09-14T22:21:36.563Z,7.97
2022-09-14T22:25:45.009Z,8.30
2022-09-14T22:29:48.197Z,8.77
2022-09-14T22:33:55.083Z,8.57
2022-09-14T22:37:58.703Z,12.13
2022-09-14T22:42:03.352Z,8.27
2022-09-14T22:46:09.329Z,7.87
2022-09-14T22:50:12.610Z,8.20
2022-09-14T22:54:16.036Z,8.73
2022-09-14T22:58:22.651Z,8.90
2022-09-14T23:02:26.095Z,8.20
2022-09-14T23:06:30.485Z,11.33
2022-09-14T23:10:38.483Z,9.07
2022-09-14T23:14:43.074Z,12.93
2022-09-14T23:18:50.998Z,11.80
2022-09-14T23:22:54.229Z,11.27
2022-09-14T23:26:57.848Z,19.50
2022-09-14T23:31:02.748Z,15.40
2022-09-14T23:35:07.739Z,15.07
2022-09-14T23:39:11.574Z,15.50
2022-09-14T23:43:14.774Z,12.70
2022-09-14T23:47:19.524Z,14.67
2022-09-14T23:51:23.044Z,15.20
2022-09-14T23:55:26.428Z,14.77
2022-09-14T23:59:29.631Z,12.83
